Domov               UVHVVR             MKGP            O straneh              
ZDRAVSTVENO VARSTVO RASTLIN
  MREŽA AGROMET. POSTAJ
 ► PROGNOSTIČNA OBVESTILA
AGROMETEOROLOŠKI PODATKI -
ARSO
OBVLADOVANJE TVEGANJ ZARADI
NEUGODNIH VREMENSKIH RAZMER
  ► NARAVNE NESREČE
  ► SUŠA/MOČA
  ► NAMAKANJE
  ► ŽLED (gozdarstvo)
KARTOGRAFSKI PRIKAZI
SPLETNE POVEZAVE
PROJEKTI IN PUBLIKACIJE

AGROMETEOROLOŠKA MREŽA: VREMENSKE POSTAJE IN FENOLOŠKA OPAZOVANJA

Pregled podatkov za lokacijo Gabrovka, meteorološka postaja 38756

Pregled senzorjev na lokaciji

ID Ime Zadnja
vrednost
Datum
zadnje
spremembe
Tip
senzorja
2042 Omočenost lista (U) 1 U 19.2.2018 06:30 A730WET
2045 Padavine (mm) 0 mm 19.2.2018 06:30 Rain-O-Matic
2065 Relativna vlaga 2 m (% RH) 94,09 % RH 19.2.2018 06:30 50YA
2064 Temperatura 2 m (°C) -2,49 °C 19.2.2018 06:30 50YA

Pregled podatkov zadnjih 24 ur

Zap.
št.
Datum in čas Gabrovka
Omočenost
lista
Padavine Relativna
vlaga
2
m
Temperatura
2
m
1 19.2.2018 07:00
2 19.2.2018 06:30 1 0 94,1 -2,5
3 19.2.2018 06:00 2 0 89,7 -2,2
4 19.2.2018 05:30 2 0 88,4 -2,1
5 19.2.2018 05:00 2 0 88 -1,9
6 19.2.2018 04:30 2 0 88,6 -1,9
7 19.2.2018 04:00 2 0 88 -1,8
8 19.2.2018 03:30 2 0 88,6 -1,7
9 19.2.2018 03:00 2 0 90,4 -1,7
10 19.2.2018 02:30 2 0 90,5 -1,5
11 19.2.2018 02:00 3 0 90,6 -1,4
12 19.2.2018 01:30 3 0 91,9 -1,3
13 19.2.2018 01:00 3 0 92,9 -1,2
14 19.2.2018 00:30 3 0 93,3 -1,2
15 19.2.2018 00:00 3 0 95,3 -1,2
16 18.2.2018 23:30 3 0 96,5 -1,2
17 18.2.2018 23:00 3 0 97,3 -1,1
18 18.2.2018 22:30 4 0 99,3 -1,1
19 18.2.2018 22:00 4 0 99,9 -1
20 18.2.2018 21:30 4 0 99,9 -0,9
21 18.2.2018 21:00 4 0 99,9 -0,8
22 18.2.2018 20:30 4 0 99,9 -0,7
23 18.2.2018 20:00 3 0 99,9 -0,6
24 18.2.2018 19:30 3 0 99,9 -0,5
25 18.2.2018 19:00 3 0 99,9 -0,4
26 18.2.2018 18:30 3 0 99,9 -0,3
27 18.2.2018 18:00 2 0,2 99,8 -0,2
28 18.2.2018 17:30 3 0 98,5 0
29 18.2.2018 17:00 2 0 98,4 0,2
30 18.2.2018 16:30 0 0,2 99,4 0,2
31 18.2.2018 16:00 1 0,2 99,4 0,2
32 18.2.2018 15:30 0 0,2 98,4 0,3
33 18.2.2018 15:00 0 0,2 95 0,6
34 18.2.2018 14:30 0 0,2 91,3 0,9
35 18.2.2018 14:00 0 0,4 89,1 1
36 18.2.2018 13:30 0 0,6 90,9 1,1
37 18.2.2018 13:00 0 0,8 95,8 0,9
38 18.2.2018 12:30 0 0,4 98,1 0,7
39 18.2.2018 12:00 0 0,6 98,7 0,6
40 18.2.2018 11:30 0 0,4 99,9 0,6
41 18.2.2018 11:00 0 0,2 99,9 0,4
42 18.2.2018 10:30 0 0,2 99,9 0,4
43 18.2.2018 10:00 0 0,2 99,9 0
44 18.2.2018 09:30 0 0 99,9 -0,2
45 18.2.2018 09:00 0 0 99,9 -0,2
46 18.2.2018 08:30 0 0 99,9 -0,3
47 18.2.2018 08:00 0 0 99,9 -0,4
48 18.2.2018 07:30 0 0 99,9 -0,4
© 2011 Ministrstvo za kmetijstvo, gozdarstvo in prehrano. Vse pravice pridržane.